sensor_id;sensor_type;location;lat;lon;timestamp;P1;durP1;ratioP1;P2;durP2;ratioP2
69197;SDS011;56311;50.298;8.514;2023-07-20T00:00:00;6.9;;;2.3;;
69197;SDS011;56311;50.298;8.514;2023-07-20T00:02:00;8.6;;;2.4;;
69197;SDS011;56311;50.298;8.514;2023-07-20T00:04:00;7.1;;;2.3;;
69197;SDS011;56311;50.298;8.514;2023-07-20T00:06:00;8.3;;;2.5;;
69197;SDS011;56311;50.298;8.514;2023-07-20T00:08:00;7.7;;;2.5;;
69197;SDS011;56311;50.298;8.514;2023-07-20T00:10:00;7.0;;;2.4;;
69197;SDS011;56311;50.298;8.514;2023-07-20T00:12:00;6.2;;;2.2;;
69197;SDS011;56311;50.298;8.514;2023-07-20T00:14:00;8.4;;;2.5;;
69197;SDS011;56311;50.298;8.514;2023-07-20T00:16:00;7.4;;;2.3;;
69197;SDS011;56311;50.298;8.514;2023-07-20T00:18:00;7.5;;;2.6;;
69197;SDS011;56311;50.298;8.514;2023-07-20T00:20:00;7.5;;;2.4;;
69197;SDS011;56311;50.298;8.514;2023-07-20T00:22:00;8.7;;;2.5;;
69197;SDS011;56311;50.298;8.514;2023-07-20T00:24:00;6.1;;;2.2;;
69197;SDS011;56311;50.298;8.514;2023-07-20T00:26:00;9.2;;;2.3;;
69197;SDS011;56311;50.298;8.514;2023-07-20T00:28:00;7.4;;;2.6;;
69197;SDS011;56311;50.298;8.514;2023-07-20T00:30:00;9.4;;;2.9;;
69197;SDS011;56311;50.298;8.514;2023-07-20T00:32:00;8.7;;;2.5;;
69197;SDS011;56311;50.298;8.514;2023-07-20T00:34:00;9.0;;;2.7;;
69197;SDS011;56311;50.298;8.514;2023-07-20T00:36:00;8.7;;;2.7;;
69197;SDS011;56311;50.298;8.514;2023-07-20T00:38:00;7.0;;;2.9;;
69197;SDS011;56311;50.298;8.514;2023-07-20T00:40:00;7.2;;;2.5;;
69197;SDS011;56311;50.298;8.514;2023-07-20T00:42:00;6.7;;;2.5;;
69197;SDS011;56311;50.298;8.514;2023-07-20T00:44:00;6.7;;;2.4;;
69197;SDS011;56311;50.298;8.514;2023-07-20T00:46:00;6.1;;;2.2;;
69197;SDS011;56311;50.298;8.514;2023-07-20T00:48:00;6.7;;;2.4;;
69197;SDS011;56311;50.298;8.514;2023-07-20T00:50:00;8.1;;;2.7;;
69197;SDS011;56311;50.298;8.514;2023-07-20T00:52:00;8.5;;;2.8;;
69197;SDS011;56311;50.298;8.514;2023-07-20T00:54:00;7.6;;;2.6;;
69197;SDS011;56311;50.298;8.514;2023-07-20T00:56:00;8.8;;;2.5;;
69197;SDS011;56311;50.298;8.514;2023-07-20T00:58:00;6.6;;;2.4;;
69197;SDS011;56311;50.298;8.514;2023-07-20T01:00:00;8.0;;;2.6;;
69197;SDS011;56311;50.298;8.514;2023-07-20T01:02:00;7.9;;;2.5;;
69197;SDS011;56311;50.298;8.514;2023-07-20T01:04:00;7.4;;;2.6;;
69197;SDS011;56311;50.298;8.514;2023-07-20T01:06:02;9.2;;;2.7;;
69197;SDS011;56311;50.298;8.514;2023-07-20T01:08:02;8.0;;;2.4;;
69197;SDS011;56311;50.298;8.514;2023-07-20T01:10:01;8.4;;;3.0;;
69197;SDS011;56311;50.298;8.514;2023-07-20T01:12:02;8.6;;;2.9;;
69197;SDS011;56311;50.298;8.514;2023-07-20T01:14:00;7.7;;;2.8;;
69197;SDS011;56311;50.298;8.514;2023-07-20T01:16:00;8.1;;;2.4;;
69197;SDS011;56311;50.298;8.514;2023-07-20T01:18:00;7.5;;;2.7;;
69197;SDS011;56311;50.298;8.514;2023-07-20T01:20:00;7.5;;;2.4;;
69197;SDS011;56311;50.298;8.514;2023-07-20T01:22:02;8.5;;;2.5;;
69197;SDS011;56311;50.298;8.514;2023-07-20T01:24:05;7.8;;;2.4;;
69197;SDS011;56311;50.298;8.514;2023-07-20T01:26:08;6.7;;;2.8;;
69197;SDS011;56311;50.298;8.514;2023-07-20T01:28:07;7.8;;;2.9;;
69197;SDS011;56311;50.298;8.514;2023-07-20T01:30:03;7.2;;;2.6;;
69197;SDS011;56311;50.298;8.514;2023-07-20T01:32:00;7.2;;;2.2;;
69197;SDS011;56311;50.298;8.514;2023-07-20T01:34:01;7.7;;;2.6;;
69197;SDS011;56311;50.298;8.514;2023-07-20T01:36:00;6.7;;;2.8;;
69197;SDS011;56311;50.298;8.514;2023-07-20T01:38:00;7.9;;;2.6;;
69197;SDS011;56311;50.298;8.514;2023-07-20T01:40:00;9.0;;;2.8;;
69197;SDS011;56311;50.298;8.514;2023-07-20T01:42:00;9.6;;;3.1;;
69197;SDS011;56311;50.298;8.514;2023-07-20T01:44:00;7.5;;;2.6;;
69197;SDS011;56311;50.298;8.514;2023-07-20T01:46:00;8.5;;;3.1;;
69197;SDS011;56311;50.298;8.514;2023-07-20T01:48:00;8.4;;;2.7;;
69197;SDS011;56311;50.298;8.514;2023-07-20T01:50:00;10.8;;;2.8;;
69197;SDS011;56311;50.298;8.514;2023-07-20T01:52:00;7.8;;;2.8;;
69197;SDS011;56311;50.298;8.514;2023-07-20T01:54:00;8.3;;;2.8;;
69197;SDS011;56311;50.298;8.514;2023-07-20T01:56:00;9.1;;;3.1;;
69197;SDS011;56311;50.298;8.514;2023-07-20T01:58:00;8.1;;;2.8;;
69197;SDS011;56311;50.298;8.514;2023-07-20T02:00:00;8.3;;;2.7;;
69197;SDS011;56311;50.298;8.514;2023-07-20T02:02:00;6.9;;;2.7;;
69197;SDS011;56311;50.298;8.514;2023-07-20T02:04:00;6.8;;;2.8;;
69197;SDS011;56311;50.298;8.514;2023-07-20T02:06:00;7.4;;;2.8;;
69197;SDS011;56311;50.298;8.514;2023-07-20T02:08:00;8.5;;;2.9;;
69197;SDS011;56311;50.298;8.514;2023-07-20T02:10:01;10.9;;;2.8;;
69197;SDS011;56311;50.298;8.514;2023-07-20T02:12:00;7.3;;;2.9;;
69197;SDS011;56311;50.298;8.514;2023-07-20T02:14:00;7.2;;;2.7;;
69197;SDS011;56311;50.298;8.514;2023-07-20T02:16:00;7.2;;;2.9;;
69197;SDS011;56311;50.298;8.514;2023-07-20T02:18:00;6.3;;;2.7;;
69197;SDS011;56311;50.298;8.514;2023-07-20T02:20:00;6.7;;;2.8;;
69197;SDS011;56311;50.298;8.514;2023-07-20T02:22:00;10.0;;;3.1;;
69197;SDS011;56311;50.298;8.514;2023-07-20T02:24:00;7.4;;;2.9;;
69197;SDS011;56311;50.298;8.514;2023-07-20T02:26:00;11.2;;;2.8;;
69197;SDS011;56311;50.298;8.514;2023-07-20T02:28:00;9.8;;;2.9;;
69197;SDS011;56311;50.298;8.514;2023-07-20T02:30:00;9.9;;;3.3;;
69197;SDS011;56311;50.298;8.514;2023-07-20T02:32:00;7.8;;;2.7;;
69197;SDS011;56311;50.298;8.514;2023-07-20T02:34:00;7.5;;;3.0;;
69197;SDS011;56311;50.298;8.514;2023-07-20T02:36:00;8.7;;;2.9;;
69197;SDS011;56311;50.298;8.514;2023-07-20T02:38:00;8.4;;;2.8;;
69197;SDS011;56311;50.298;8.514;2023-07-20T02:40:00;8.4;;;2.7;;
69197;SDS011;56311;50.298;8.514;2023-07-20T02:42:00;8.9;;;3.2;;
69197;SDS011;56311;50.298;8.514;2023-07-20T02:44:00;8.6;;;3.0;;
69197;SDS011;56311;50.298;8.514;2023-07-20T02:46:00;8.9;;;2.8;;
69197;SDS011;56311;50.298;8.514;2023-07-20T02:48:00;7.5;;;3.2;;
69197;SDS011;56311;50.298;8.514;2023-07-20T02:50:00;10.7;;;3.2;;
69197;SDS011;56311;50.298;8.514;2023-07-20T02:52:00;9.4;;;3.1;;
69197;SDS011;56311;50.298;8.514;2023-07-20T02:54:00;7.6;;;3.0;;
69197;SDS011;56311;50.298;8.514;2023-07-20T02:56:00;8.2;;;3.5;;
69197;SDS011;56311;50.298;8.514;2023-07-20T02:58:00;8.5;;;3.4;;
69197;SDS011;56311;50.298;8.514;2023-07-20T03:00:00;9.4;;;3.5;;
69197;SDS011;56311;50.298;8.514;2023-07-20T03:02:00;8.6;;;3.6;;
69197;SDS011;56311;50.298;8.514;2023-07-20T03:04:00;11.3;;;3.8;;
69197;SDS011;56311;50.298;8.514;2023-07-20T03:06:00;8.4;;;3.5;;
69197;SDS011;56311;50.298;8.514;2023-07-20T03:08:00;9.9;;;3.7;;
69197;SDS011;56311;50.298;8.514;2023-07-20T03:10:00;8.2;;;3.4;;
69197;SDS011;56311;50.298;8.514;2023-07-20T03:12:00;8.7;;;3.2;;
69197;SDS011;56311;50.298;8.514;2023-07-20T03:14:00;7.3;;;3.2;;
69197;SDS011;56311;50.298;8.514;2023-07-20T03:16:00;7.7;;;3.3;;
69197;SDS011;56311;50.298;8.514;2023-07-20T03:18:00;11.9;;;3.3;;
69197;SDS011;56311;50.298;8.514;2023-07-20T03:20:00;8.1;;;3.1;;
69197;SDS011;56311;50.298;8.514;2023-07-20T03:22:00;6.2;;;3.0;;
69197;SDS011;56311;50.298;8.514;2023-07-20T03:24:00;9.4;;;3.2;;
69197;SDS011;56311;50.298;8.514;2023-07-20T03:26:00;8.4;;;2.7;;
69197;SDS011;56311;50.298;8.514;2023-07-20T03:28:00;7.8;;;3.0;;
69197;SDS011;56311;50.298;8.514;2023-07-20T03:30:00;7.5;;;3.0;;
69197;SDS011;56311;50.298;8.514;2023-07-20T03:32:00;6.6;;;2.6;;
69197;SDS011;56311;50.298;8.514;2023-07-20T03:34:00;6.5;;;2.7;;
69197;SDS011;56311;50.298;8.514;2023-07-20T03:36:00;7.7;;;2.7;;
69197;SDS011;56311;50.298;8.514;2023-07-20T03:38:00;7.2;;;2.5;;
69197;SDS011;56311;50.298;8.514;2023-07-20T03:40:00;6.6;;;2.4;;
69197;SDS011;56311;50.298;8.514;2023-07-20T03:42:00;5.9;;;2.2;;
69197;SDS011;56311;50.298;8.514;2023-07-20T03:44:00;6.1;;;2.3;;
69197;SDS011;56311;50.298;8.514;2023-07-20T03:46:00;6.5;;;2.5;;
69197;SDS011;56311;50.298;8.514;2023-07-20T03:48:00;7.6;;;2.2;;
69197;SDS011;56311;50.298;8.514;2023-07-20T03:50:00;6.2;;;2.4;;
69197;SDS011;56311;50.298;8.514;2023-07-20T03:52:00;5.7;;;2.3;;
69197;SDS011;56311;50.298;8.514;2023-07-20T03:54:00;5.1;;;2.1;;
69197;SDS011;56311;50.298;8.514;2023-07-20T03:56:00;4.9;;;1.9;;
69197;SDS011;56311;50.298;8.514;2023-07-20T03:58:00;4.7;;;2.1;;
69197;SDS011;56311;50.298;8.514;2023-07-20T04:00:00;5.3;;;1.8;;
69197;SDS011;56311;50.298;8.514;2023-07-20T04:02:00;5.2;;;2.2;;
69197;SDS011;56311;50.298;8.514;2023-07-20T04:04:00;5.2;;;1.9;;
69197;SDS011;56311;50.298;8.514;2023-07-20T04:06:00;5.7;;;1.9;;
69197;SDS011;56311;50.298;8.514;2023-07-20T04:08:00;5.3;;;2.1;;
69197;SDS011;56311;50.298;8.514;2023-07-20T04:10:00;6.6;;;2.3;;
69197;SDS011;56311;50.298;8.514;2023-07-20T04:12:00;4.5;;;2.0;;
69197;SDS011;56311;50.298;8.514;2023-07-20T04:14:00;5.7;;;2.2;;
69197;SDS011;56311;50.298;8.514;2023-07-20T04:16:00;4.9;;;2.2;;
69197;SDS011;56311;50.298;8.514;2023-07-20T04:18:00;5.8;;;2.2;;
69197;SDS011;56311;50.298;8.514;2023-07-20T04:20:00;5.8;;;2.2;;
69197;SDS011;56311;50.298;8.514;2023-07-20T04:22:00;5.1;;;1.8;;
69197;SDS011;56311;50.298;8.514;2023-07-20T04:24:00;5.6;;;2.3;;
69197;SDS011;56311;50.298;8.514;2023-07-20T04:26:00;5.7;;;2.2;;
69197;SDS011;56311;50.298;8.514;2023-07-20T04:28:00;5.3;;;2.2;;
69197;SDS011;56311;50.298;8.514;2023-07-20T04:30:00;4.2;;;1.9;;
69197;SDS011;56311;50.298;8.514;2023-07-20T04:32:00;4.8;;;2.2;;
69197;SDS011;56311;50.298;8.514;2023-07-20T04:34:00;4.9;;;2.3;;
69197;SDS011;56311;50.298;8.514;2023-07-20T04:36:00;5.9;;;2.3;;
69197;SDS011;56311;50.298;8.514;2023-07-20T04:38:00;5.7;;;2.2;;
69197;SDS011;56311;50.298;8.514;2023-07-20T04:40:00;6.6;;;2.3;;
69197;SDS011;56311;50.298;8.514;2023-07-20T04:42:00;5.8;;;2.1;;
69197;SDS011;56311;50.298;8.514;2023-07-20T04:44:00;5.1;;;2.1;;
69197;SDS011;56311;50.298;8.514;2023-07-20T04:46:00;4.7;;;2.1;;
69197;SDS011;56311;50.298;8.514;2023-07-20T04:48:00;5.4;;;2.2;;
69197;SDS011;56311;50.298;8.514;2023-07-20T04:50:00;8.5;;;2.3;;
69197;SDS011;56311;50.298;8.514;2023-07-20T04:52:01;5.9;;;2.4;;
69197;SDS011;56311;50.298;8.514;2023-07-20T04:54:00;5.2;;;2.2;;
69197;SDS011;56311;50.298;8.514;2023-07-20T04:56:00;7.4;;;2.7;;
69197;SDS011;56311;50.298;8.514;2023-07-20T04:58:00;5.6;;;2.4;;
69197;SDS011;56311;50.298;8.514;2023-07-20T05:00:00;6.5;;;2.5;;
69197;SDS011;56311;50.298;8.514;2023-07-20T05:02:00;7.1;;;2.6;;
69197;SDS011;56311;50.298;8.514;2023-07-20T05:04:00;6.7;;;2.7;;
69197;SDS011;56311;50.298;8.514;2023-07-20T05:06:00;5.3;;;2.8;;
69197;SDS011;56311;50.298;8.514;2023-07-20T05:08:00;6.1;;;2.6;;
69197;SDS011;56311;50.298;8.514;2023-07-20T05:10:00;6.4;;;2.5;;
69197;SDS011;56311;50.298;8.514;2023-07-20T05:12:00;8.6;;;3.0;;
69197;SDS011;56311;50.298;8.514;2023-07-20T05:14:00;6.2;;;2.7;;
69197;SDS011;56311;50.298;8.514;2023-07-20T05:16:00;7.1;;;2.7;;
69197;SDS011;56311;50.298;8.514;2023-07-20T05:18:00;6.3;;;2.5;;
69197;SDS011;56311;50.298;8.514;2023-07-20T05:20:00;6.2;;;2.7;;
69197;SDS011;56311;50.298;8.514;2023-07-20T05:22:00;7.5;;;2.9;;
69197;SDS011;56311;50.298;8.514;2023-07-20T05:24:00;6.5;;;2.6;;
69197;SDS011;56311;50.298;8.514;2023-07-20T05:26:00;5.7;;;2.6;;
69197;SDS011;56311;50.298;8.514;2023-07-20T05:28:00;6.5;;;2.6;;
69197;SDS011;56311;50.298;8.514;2023-07-20T05:30:00;6.7;;;2.8;;
69197;SDS011;56311;50.298;8.514;2023-07-20T05:32:00;5.3;;;2.5;;
69197;SDS011;56311;50.298;8.514;2023-07-20T05:34:00;7.9;;;2.5;;
69197;SDS011;56311;50.298;8.514;2023-07-20T05:36:00;5.3;;;2.2;;
69197;SDS011;56311;50.298;8.514;2023-07-20T05:38:00;6.8;;;2.6;;
69197;SDS011;56311;50.298;8.514;2023-07-20T05:40:00;8.2;;;2.6;;
69197;SDS011;56311;50.298;8.514;2023-07-20T05:42:00;8.1;;;2.7;;
69197;SDS011;56311;50.298;8.514;2023-07-20T05:44:00;6.1;;;2.7;;
69197;SDS011;56311;50.298;8.514;2023-07-20T05:46:00;5.6;;;2.7;;
69197;SDS011;56311;50.298;8.514;2023-07-20T05:48:00;6.0;;;2.6;;
69197;SDS011;56311;50.298;8.514;2023-07-20T05:50:00;7.1;;;2.5;;
69197;SDS011;56311;50.298;8.514;2023-07-20T05:52:00;7.3;;;2.4;;
69197;SDS011;56311;50.298;8.514;2023-07-20T05:54:00;7.6;;;2.6;;
69197;SDS011;56311;50.298;8.514;2023-07-20T05:56:00;7.1;;;2.7;;
69197;SDS011;56311;50.298;8.514;2023-07-20T05:58:00;7.4;;;3.0;;
69197;SDS011;56311;50.298;8.514;2023-07-20T06:00:00;7.8;;;3.1;;
69197;SDS011;56311;50.298;8.514;2023-07-20T06:02:00;7.0;;;2.5;;
69197;SDS011;56311;50.298;8.514;2023-07-20T06:04:00;6.2;;;2.8;;
69197;SDS011;56311;50.298;8.514;2023-07-20T06:06:00;6.5;;;2.9;;
69197;SDS011;56311;50.298;8.514;2023-07-20T06:08:00;7.8;;;2.8;;
69197;SDS011;56311;50.298;8.514;2023-07-20T06:10:00;6.4;;;2.6;;
69197;SDS011;56311;50.298;8.514;2023-07-20T06:12:00;7.8;;;2.8;;
69197;SDS011;56311;50.298;8.514;2023-07-20T06:14:00;6.0;;;2.9;;
69197;SDS011;56311;50.298;8.514;2023-07-20T06:16:00;6.5;;;2.6;;
69197;SDS011;56311;50.298;8.514;2023-07-20T06:18:00;6.5;;;2.6;;
69197;SDS011;56311;50.298;8.514;2023-07-20T06:20:00;6.2;;;2.7;;
69197;SDS011;56311;50.298;8.514;2023-07-20T06:22:00;7.9;;;3.2;;
69197;SDS011;56311;50.298;8.514;2023-07-20T06:24:00;7.0;;;3.2;;
69197;SDS011;56311;50.298;8.514;2023-07-20T06:26:00;8.7;;;3.8;;
69197;SDS011;56311;50.298;8.514;2023-07-20T06:28:00;8.8;;;3.3;;
69197;SDS011;56311;50.298;8.514;2023-07-20T06:30:00;9.7;;;3.3;;
69197;SDS011;56311;50.298;8.514;2023-07-20T06:32:00;8.3;;;3.5;;
69197;SDS011;56311;50.298;8.514;2023-07-20T06:34:00;8.3;;;3.6;;
69197;SDS011;56311;50.298;8.514;2023-07-20T06:36:00;9.8;;;3.7;;
69197;SDS011;56311;50.298;8.514;2023-07-20T06:38:00;8.5;;;3.6;;
69197;SDS011;56311;50.298;8.514;2023-07-20T06:40:01;8.7;;;3.7;;
69197;SDS011;56311;50.298;8.514;2023-07-20T06:42:00;10.9;;;3.5;;
69197;SDS011;56311;50.298;8.514;2023-07-20T06:44:00;6.7;;;3.2;;
69197;SDS011;56311;50.298;8.514;2023-07-20T06:46:00;8.4;;;3.5;;
69197;SDS011;56311;50.298;8.514;2023-07-20T06:48:00;7.4;;;3.5;;
69197;SDS011;56311;50.298;8.514;2023-07-20T06:50:00;7.4;;;3.4;;
69197;SDS011;56311;50.298;8.514;2023-07-20T06:52:00;9.8;;;3.7;;
69197;SDS011;56311;50.298;8.514;2023-07-20T06:54:01;9.0;;;3.5;;
69197;SDS011;56311;50.298;8.514;2023-07-20T06:56:00;9.6;;;3.8;;
69197;SDS011;56311;50.298;8.514;2023-07-20T06:58:01;7.9;;;3.7;;
69197;SDS011;56311;50.298;8.514;2023-07-20T07:00:00;6.5;;;3.3;;
69197;SDS011;56311;50.298;8.514;2023-07-20T07:02:00;7.0;;;3.5;;
69197;SDS011;56311;50.298;8.514;2023-07-20T07:04:00;9.1;;;3.8;;
69197;SDS011;56311;50.298;8.514;2023-07-20T07:06:00;9.3;;;3.6;;
69197;SDS011;56311;50.298;8.514;2023-07-20T07:08:00;8.4;;;3.5;;
69197;SDS011;56311;50.298;8.514;2023-07-20T07:10:01;6.8;;;3.4;;
69197;SDS011;56311;50.298;8.514;2023-07-20T07:12:00;9.3;;;3.3;;
69197;SDS011;56311;50.298;8.514;2023-07-20T07:14:00;7.8;;;3.1;;
69197;SDS011;56311;50.298;8.514;2023-07-20T07:16:00;8.2;;;3.0;;
69197;SDS011;56311;50.298;8.514;2023-07-20T07:18:00;7.6;;;3.3;;
69197;SDS011;56311;50.298;8.514;2023-07-20T07:20:00;8.2;;;2.9;;
69197;SDS011;56311;50.298;8.514;2023-07-20T07:22:00;8.2;;;3.1;;
69197;SDS011;56311;50.298;8.514;2023-07-20T07:24:00;6.7;;;3.3;;
69197;SDS011;56311;50.298;8.514;2023-07-20T07:26:00;6.1;;;3.0;;
69197;SDS011;56311;50.298;8.514;2023-07-20T07:28:00;9.1;;;3.1;;
69197;SDS011;56311;50.298;8.514;2023-07-20T07:30:00;6.7;;;2.8;;
69197;SDS011;56311;50.298;8.514;2023-07-20T07:32:00;7.1;;;3.2;;
69197;SDS011;56311;50.298;8.514;2023-07-20T07:34:00;9.1;;;3.5;;
69197;SDS011;56311;50.298;8.514;2023-07-20T07:36:00;8.0;;;3.3;;
69197;SDS011;56311;50.298;8.514;2023-07-20T07:38:00;7.5;;;2.8;;
69197;SDS011;56311;50.298;8.514;2023-07-20T07:40:00;8.0;;;3.2;;
69197;SDS011;56311;50.298;8.514;2023-07-20T07:42:00;8.4;;;3.0;;
69197;SDS011;56311;50.298;8.514;2023-07-20T07:44:00;6.4;;;2.7;;
69197;SDS011;56311;50.298;8.514;2023-07-20T07:46:00;8.4;;;2.8;;
69197;SDS011;56311;50.298;8.514;2023-07-20T07:48:00;7.9;;;3.3;;
69197;SDS011;56311;50.298;8.514;2023-07-20T07:50:00;8.6;;;4.0;;
69197;SDS011;56311;50.298;8.514;2023-07-20T07:52:00;9.3;;;4.3;;
69197;SDS011;56311;50.298;8.514;2023-07-20T07:54:00;7.4;;;3.9;;
69197;SDS011;56311;50.298;8.514;2023-07-20T07:56:00;8.4;;;4.2;;
69197;SDS011;56311;50.298;8.514;2023-07-20T07:58:00;9.2;;;4.0;;
69197;SDS011;56311;50.298;8.514;2023-07-20T08:00:00;7.4;;;3.7;;
69197;SDS011;56311;50.298;8.514;2023-07-20T08:02:00;9.0;;;4.0;;
69197;SDS011;56311;50.298;8.514;2023-07-20T08:04:00;8.2;;;3.9;;
69197;SDS011;56311;50.298;8.514;2023-07-20T08:06:00;8.1;;;3.7;;
69197;SDS011;56311;50.298;8.514;2023-07-20T08:08:00;8.6;;;3.6;;
69197;SDS011;56311;50.298;8.514;2023-07-20T08:10:00;7.6;;;3.7;;
69197;SDS011;56311;50.298;8.514;2023-07-20T08:12:00;8.3;;;3.5;;
69197;SDS011;56311;50.298;8.514;2023-07-20T08:14:00;10.6;;;4.1;;
69197;SDS011;56311;50.298;8.514;2023-07-20T08:16:00;8.6;;;3.5;;
69197;SDS011;56311;50.298;8.514;2023-07-20T08:18:00;7.3;;;3.7;;
69197;SDS011;56311;50.298;8.514;2023-07-20T08:20:00;10.1;;;3.6;;
69197;SDS011;56311;50.298;8.514;2023-07-20T08:22:00;7.8;;;3.6;;
69197;SDS011;56311;50.298;8.514;2023-07-20T08:24:00;9.4;;;3.4;;
69197;SDS011;56311;50.298;8.514;2023-07-20T08:26:00;7.3;;;3.2;;
69197;SDS011;56311;50.298;8.514;2023-07-20T08:28:00;9.0;;;3.4;;
69197;SDS011;56311;50.298;8.514;2023-07-20T08:30:00;7.7;;;3.3;;
69197;SDS011;56311;50.298;8.514;2023-07-20T08:32:00;8.9;;;3.4;;
69197;SDS011;56311;50.298;8.514;2023-07-20T08:34:00;6.9;;;3.1;;
69197;SDS011;56311;50.298;8.514;2023-07-20T08:36:00;7.5;;;3.4;;
69197;SDS011;56311;50.298;8.514;2023-07-20T08:38:00;6.6;;;3.1;;
69197;SDS011;56311;50.298;8.514;2023-07-20T08:40:00;7.0;;;3.3;;
69197;SDS011;56311;50.298;8.514;2023-07-20T08:42:00;7.2;;;3.2;;
69197;SDS011;56311;50.298;8.514;2023-07-20T08:44:00;6.0;;;3.3;;
69197;SDS011;56311;50.298;8.514;2023-07-20T08:46:00;7.1;;;3.3;;
69197;SDS011;56311;50.298;8.514;2023-07-20T08:48:00;7.1;;;3.2;;
69197;SDS011;56311;50.298;8.514;2023-07-20T08:50:01;7.4;;;3.0;;
69197;SDS011;56311;50.298;8.514;2023-07-20T08:52:00;7.4;;;3.3;;
69197;SDS011;56311;50.298;8.514;2023-07-20T08:54:00;5.7;;;2.9;;
69197;SDS011;56311;50.298;8.514;2023-07-20T08:56:00;7.1;;;2.9;;
69197;SDS011;56311;50.298;8.514;2023-07-20T08:58:00;6.6;;;2.8;;
69197;SDS011;56311;50.298;8.514;2023-07-20T09:00:01;7.1;;;2.8;;
69197;SDS011;56311;50.298;8.514;2023-07-20T09:02:00;7.2;;;3.0;;
69197;SDS011;56311;50.298;8.514;2023-07-20T09:04:00;8.2;;;3.0;;
69197;SDS011;56311;50.298;8.514;2023-07-20T09:06:00;5.4;;;2.8;;
69197;SDS011;56311;50.298;8.514;2023-07-20T09:08:00;6.5;;;3.0;;
69197;SDS011;56311;50.298;8.514;2023-07-20T09:10:00;5.9;;;2.8;;
69197;SDS011;56311;50.298;8.514;2023-07-20T09:12:00;7.3;;;3.0;;
69197;SDS011;56311;50.298;8.514;2023-07-20T09:14:04;6.2;;;3.0;;
69197;SDS011;56311;50.298;8.514;2023-07-20T09:16:00;5.9;;;2.7;;
69197;SDS011;56311;50.298;8.514;2023-07-20T09:18:01;9.5;;;2.9;;
69197;SDS011;56311;50.298;8.514;2023-07-20T09:20:03;7.9;;;2.8;;
69197;SDS011;56311;50.298;8.514;2023-07-20T09:22:00;5.7;;;2.8;;
69197;SDS011;56311;50.298;8.514;2023-07-20T09:24:00;6.4;;;2.5;;
69197;SDS011;56311;50.298;8.514;2023-07-20T09:26:00;5.1;;;2.3;;
69197;SDS011;56311;50.298;8.514;2023-07-20T09:28:02;6.0;;;2.7;;
69197;SDS011;56311;50.298;8.514;2023-07-20T09:30:00;5.4;;;2.5;;
69197;SDS011;56311;50.298;8.514;2023-07-20T09:32:00;9.4;;;2.8;;
69197;SDS011;56311;50.298;8.514;2023-07-20T09:34:00;6.2;;;2.6;;
69197;SDS011;56311;50.298;8.514;2023-07-20T09:36:02;6.1;;;2.3;;
69197;SDS011;56311;50.298;8.514;2023-07-20T09:38:01;7.3;;;2.7;;
69197;SDS011;56311;50.298;8.514;2023-07-20T09:40:00;7.3;;;2.3;;
69197;SDS011;56311;50.298;8.514;2023-07-20T09:42:00;9.5;;;2.2;;
69197;SDS011;56311;50.298;8.514;2023-07-20T09:44:00;7.7;;;2.6;;
69197;SDS011;56311;50.298;8.514;2023-07-20T09:46:00;8.0;;;2.9;;
69197;SDS011;56311;50.298;8.514;2023-07-20T09:48:03;7.6;;;2.7;;
69197;SDS011;56311;50.298;8.514;2023-07-20T09:50:00;5.5;;;2.6;;
69197;SDS011;56311;50.298;8.514;2023-07-20T09:52:00;9.7;;;2.5;;
69197;SDS011;56311;50.298;8.514;2023-07-20T09:54:00;6.0;;;2.6;;
69197;SDS011;56311;50.298;8.514;2023-07-20T09:56:00;6.8;;;2.7;;
69197;SDS011;56311;50.298;8.514;2023-07-20T09:58:00;6.6;;;2.6;;
69197;SDS011;56311;50.298;8.514;2023-07-20T10:00:00;6.5;;;2.6;;
69197;SDS011;56311;50.298;8.514;2023-07-20T10:02:01;6.1;;;2.4;;
69197;SDS011;56311;50.298;8.514;2023-07-20T10:04:02;6.3;;;2.6;;
69197;SDS011;56311;50.298;8.514;2023-07-20T10:06:02;7.1;;;2.6;;
69197;SDS011;56311;50.298;8.514;2023-07-20T10:08:01;8.2;;;2.7;;
69197;SDS011;56311;50.298;8.514;2023-07-20T10:10:01;5.2;;;2.3;;
69197;SDS011;56311;50.298;8.514;2023-07-20T10:12:00;6.2;;;2.1;;
69197;SDS011;56311;50.298;8.514;2023-07-20T10:14:00;4.9;;;2.1;;
69197;SDS011;56311;50.298;8.514;2023-07-20T10:16:01;6.3;;;3.6;;
69197;SDS011;56311;50.298;8.514;2023-07-20T10:18:02;7.0;;;2.7;;
69197;SDS011;56311;50.298;8.514;2023-07-20T10:20:00;15.5;;;7.3;;
69197;SDS011;56311;50.298;8.514;2023-07-20T10:22:02;8.9;;;3.0;;
69197;SDS011;56311;50.298;8.514;2023-07-20T10:24:00;5.5;;;1.9;;
69197;SDS011;56311;50.298;8.514;2023-07-20T10:26:01;5.8;;;1.9;;
69197;SDS011;56311;50.298;8.514;2023-07-20T10:28:00;5.1;;;2.0;;
69197;SDS011;56311;50.298;8.514;2023-07-20T10:30:00;5.5;;;1.8;;
69197;SDS011;56311;50.298;8.514;2023-07-20T10:32:00;5.8;;;1.4;;
69197;SDS011;56311;50.298;8.514;2023-07-20T10:34:00;5.0;;;1.8;;
69197;SDS011;56311;50.298;8.514;2023-07-20T10:36:01;5.0;;;1.4;;
69197;SDS011;56311;50.298;8.514;2023-07-20T10:38:00;4.6;;;1.4;;
69197;SDS011;56311;50.298;8.514;2023-07-20T10:42:00;5.3;;;1.4;;
69197;SDS011;56311;50.298;8.514;2023-07-20T10:44:00;5.0;;;1.4;;
69197;SDS011;56311;50.298;8.514;2023-07-20T10:46:00;4.5;;;1.5;;
69197;SDS011;56311;50.298;8.514;2023-07-20T10:48:02;5.6;;;1.3;;
69197;SDS011;56311;50.298;8.514;2023-07-20T10:50:01;4.8;;;1.5;;
69197;SDS011;56311;50.298;8.514;2023-07-20T10:52:03;4.2;;;1.1;;
69197;SDS011;56311;50.298;8.514;2023-07-20T10:54:01;4.3;;;1.1;;
69197;SDS011;56311;50.298;8.514;2023-07-20T10:56:08;4.4;;;1.1;;
69197;SDS011;56311;50.298;8.514;2023-07-20T10:58:08;3.8;;;1.2;;
69197;SDS011;56311;50.298;8.514;2023-07-20T11:00:08;5.6;;;1.2;;
69197;SDS011;56311;50.298;8.514;2023-07-20T11:02:00;3.9;;;1.2;;
69197;SDS011;56311;50.298;8.514;2023-07-20T11:04:00;3.2;;;1.1;;
69197;SDS011;56311;50.298;8.514;2023-07-20T11:08:00;3.7;;;1.3;;
69197;SDS011;56311;50.298;8.514;2023-07-20T11:12:08;5.4;;;3.1;;
69197;SDS011;56311;50.298;8.514;2023-07-20T11:14:01;10.9;;;9.4;;
69197;SDS011;56311;50.298;8.514;2023-07-20T11:16:02;4.0;;;1.2;;
69197;SDS011;56311;50.298;8.514;2023-07-20T11:18:10;3.4;;;1.2;;
69197;SDS011;56311;50.298;8.514;2023-07-20T11:20:01;4.0;;;0.9;;
69197;SDS011;56311;50.298;8.514;2023-07-20T11:22:00;3.8;;;1.2;;
69197;SDS011;56311;50.298;8.514;2023-07-20T11:24:02;4.7;;;1.1;;
69197;SDS011;56311;50.298;8.514;2023-07-20T11:26:00;2.9;;;1.0;;
69197;SDS011;56311;50.298;8.514;2023-07-20T11:28:00;3.3;;;0.9;;
69197;SDS011;56311;50.298;8.514;2023-07-20T11:30:00;5.1;;;1.1;;
69197;SDS011;56311;50.298;8.514;2023-07-20T11:32:00;3.4;;;0.9;;
69197;SDS011;56311;50.298;8.514;2023-07-20T11:34:00;2.9;;;1.0;;
69197;SDS011;56311;50.298;8.514;2023-07-20T11:36:00;3.3;;;1.0;;
69197;SDS011;56311;50.298;8.514;2023-07-20T11:38:00;2.8;;;1.0;;
69197;SDS011;56311;50.298;8.514;2023-07-20T11:40:00;3.3;;;1.0;;
69197;SDS011;56311;50.298;8.514;2023-07-20T11:42:00;2.9;;;0.9;;
69197;SDS011;56311;50.298;8.514;2023-07-20T11:44:00;3.1;;;1.0;;
69197;SDS011;56311;50.298;8.514;2023-07-20T11:46:00;3.0;;;0.9;;
69197;SDS011;56311;50.298;8.514;2023-07-20T11:48:00;2.8;;;0.8;;
69197;SDS011;56311;50.298;8.514;2023-07-20T11:50:02;3.3;;;0.8;;
69197;SDS011;56311;50.298;8.514;2023-07-20T11:52:00;3.0;;;0.8;;
69197;SDS011;56311;50.298;8.514;2023-07-20T11:54:01;3.6;;;0.8;;
69197;SDS011;56311;50.298;8.514;2023-07-20T11:56:00;3.8;;;0.9;;
69197;SDS011;56311;50.298;8.514;2023-07-20T11:58:00;3.2;;;0.7;;
69197;SDS011;56311;50.298;8.514;2023-07-20T12:00:01;3.2;;;0.8;;
69197;SDS011;56311;50.298;8.514;2023-07-20T12:02:00;4.4;;;0.7;;
69197;SDS011;56311;50.298;8.514;2023-07-20T12:04:00;3.0;;;0.8;;
69197;SDS011;56311;50.298;8.514;2023-07-20T12:06:05;3.3;;;0.8;;
69197;SDS011;56311;50.298;8.514;2023-07-20T12:08:00;4.0;;;0.8;;
69197;SDS011;56311;50.298;8.514;2023-07-20T12:10:04;3.0;;;0.9;;
69197;SDS011;56311;50.298;8.514;2023-07-20T12:12:00;3.2;;;0.8;;
69197;SDS011;56311;50.298;8.514;2023-07-20T12:14:00;2.9;;;0.7;;
69197;SDS011;56311;50.298;8.514;2023-07-20T12:16:06;3.4;;;0.9;;
69197;SDS011;56311;50.298;8.514;2023-07-20T12:18:01;4.0;;;0.8;;
69197;SDS011;56311;50.298;8.514;2023-07-20T12:20:00;2.6;;;0.8;;
69197;SDS011;56311;50.298;8.514;2023-07-20T12:22:00;3.2;;;0.9;;
69197;SDS011;56311;50.298;8.514;2023-07-20T12:24:00;3.7;;;1.0;;
69197;SDS011;56311;50.298;8.514;2023-07-20T12:26:00;4.2;;;1.1;;
69197;SDS011;56311;50.298;8.514;2023-07-20T12:28:00;3.8;;;0.8;;
69197;SDS011;56311;50.298;8.514;2023-07-20T12:30:00;4.2;;;0.9;;